Abu Dhabi International Airport


Codes: OMAA/AUH
Name: Abu Dhabi International Airport
City: Abu Dhabi
Country: United Arab Emirates
Elevation: 88 ft.
Website:
Wikipedia:

Photos at Abu Dhabi International Airport


   Photos courtesy of SpottingLog. You can add your own sightings and photos by signing up for a free trial today.



No photos found.

Weather at Abu Dhabi International Airport


Time (UTC)DescriptionTempratureWindCloud coverageVisibilityPressureHumidity
25-Jun-2024 15:00Broken Clouds39°C9 mph, NW51%10000m994hPa37%
25-Jun-2024 18:00Scattered Clouds36°C9 mph, NW29%10000m995hPa48%
25-Jun-2024 21:00Overcast Clouds33°C4 mph, W94%10000m994hPa64%
26-Jun-2024 00:00Overcast Clouds32°C7 mph, W97%10000m993hPa69%
26-Jun-2024 03:00Overcast Clouds33°C2 mph, SW94%10000m995hPa69%
26-Jun-2024 06:00Scattered Clouds37°C4 mph, W50%10000m995hPa42%
26-Jun-2024 09:00Clear Sky42°C11 mph, NW6%10000m994hPa25%
26-Jun-2024 12:00Clear Sky41°C16 mph, NW6%10000m993hPa33%
26-Jun-2024 15:00Clear Sky35°C11 mph, NW2%10000m994hPa58%
26-Jun-2024 18:00Few Clouds33°C4 mph, N20%10000m996hPa64%
26-Jun-2024 21:00Broken Clouds33°C7 mph, E75%10000m995hPa49%
27-Jun-2024 00:00Broken Clouds34°C7 mph, SE83%10000m994hPa38%
27-Jun-2024 03:00Overcast Clouds35°C2 mph, W100%10000m996hPa36%
27-Jun-2024 06:00Broken Clouds40°C7 mph, W72%10000m997hPa25%
27-Jun-2024 09:00Clear Sky40°C13 mph, NW0%10000m996hPa29%
27-Jun-2024 12:00Clear Sky41°C7 mph, NW0%10000m995hPa23%
27-Jun-2024 15:00Clear Sky36°C9 mph, NW0%10000m996hPa37%
27-Jun-2024 18:00Clear Sky34°C7 mph, NE0%10000m997hPa41%
27-Jun-2024 21:00Clear Sky33°C7 mph, NE0%10000m996hPa36%
28-Jun-2024 00:00Clear Sky32°C4 mph, NE0%10000m996hPa35%
28-Jun-2024 03:00Clear Sky35°C4 mph, E0%10000m997hPa27%
28-Jun-2024 06:00Clear Sky39°C4 mph, N0%10000m997hPa21%
28-Jun-2024 09:00Clear Sky40°C16 mph, NW3%10000m996hPa29%
28-Jun-2024 12:00Clear Sky38°C16 mph, NW4%10000m995hPa31%
28-Jun-2024 15:00Clear Sky34°C16 mph, NW1%10000m995hPa47%
28-Jun-2024 18:00Scattered Clouds33°C4 mph, N44%10000m996hPa56%
28-Jun-2024 21:00Broken Clouds32°C7 mph, NW63%10000m995hPa60%
29-Jun-2024 00:00Scattered Clouds31°C2 mph, NW50%10000m994hPa61%
29-Jun-2024 03:00Scattered Clouds33°C4 mph, NW41%10000m995hPa49%
29-Jun-2024 06:00Scattered Clouds37°C7 mph, NW25%10000m996hPa34%
29-Jun-2024 09:00Clear Sky39°C11 mph, NW5%10000m995hPa32%
29-Jun-2024 12:00Clear Sky38°C11 mph, NW8%10000m994hPa35%
29-Jun-2024 15:00Clear Sky35°C13 mph, NW6%10000m994hPa51%
29-Jun-2024 18:00Few Clouds33°C7 mph, NW11%10000m995hPa62%
29-Jun-2024 21:00Broken Clouds32°C4 mph, NW64%10000m994hPa65%
30-Jun-2024 00:00Broken Clouds32°C4 mph, NE82%10000m994hPa64%
30-Jun-2024 03:00Overcast Clouds33°C4 mph, E87%10000m995hPa50%
30-Jun-2024 06:00Overcast Clouds39°C2 mph, W93%10000m995hPa28%
30-Jun-2024 09:00Overcast Clouds40°C13 mph, NW91%10000m994hPa32%
30-Jun-2024 12:00Broken Clouds38°C11 mph, NW80%10000m993hPa38%